M I D A S
Marine Information and Data Acquisition System
Tripno 2040 of the Zeeleeuw from 2011-02-14 07:40:22 to 2011-02-14 15:44:08
Back to CruiseResearch ActivitiesStationsMapUnderway DataData graphs

EquipmentUnitsComment
TimeDGPSUTC
LatitudeDGPSDM.mWGS84
LongitudeDGPSDM.mWGS84
TemperatureSBE03/SBE38deg celciusITS90
ConductivitySBE21S/mITS90
SalinitySBE21 Practical Salinity Units
ChlorophylAChelsea fluorimeterg/lCalibrated in Aceton
Missing or incorrect values are displayed as -999
Sea surface data collected by the RV Zeeleeuw from 2011-02-14 07:12:17 to 2011-02-14 15:47:59
Time Latitude Longitude Temperature Conductivity Salinity ChlorophylA
2011-02-14 07:13:22 51°13.665 2°55.959 13.6496 0.093255 0.450161 -0.164791
2011-02-14 07:14:22 51°13.662 2°55.958 13.6333 0.093255 0.450186 -0.164791
2011-02-14 07:15:20 51°13.662 2°55.957 13.6345 0.093255 0.450198 -0.164791
2011-02-14 07:16:19 51°13.662 2°55.957 13.6302 0.093255 0.450216 -0.164791
2011-02-14 07:17:21 51°13.663 2°55.958 13.6372 0.093255 0.450228 -0.164791
2011-02-14 07:18:22 51°13.663 2°55.957 13.6354 0.093255 0.450247 -0.164791
2011-02-14 07:19:20 51°13.663 2°55.957 13.6667 0.093255 0.450271 -0.164791
2011-02-14 07:20:21 51°13.662 2°55.957 13.7687 0.093255 0.450302 -0.164791
2011-02-14 07:21:22 51°13.663 2°55.959 13.7086 0.093255 0.450314 -0.164791
2011-02-14 07:22:21 51°13.664 2°55.959 13.6802 0.093255 0.450338 -0.164791
2011-02-14 07:23:20 51°13.662 2°55.958 13.6812 0.093151 0.449848 -0.164791
2011-02-14 07:24:19 51°13.662 2°55.959 13.6844 0.093151 0.449867 -0.164791
2011-02-14 07:25:18 51°13.667 2°55.962 13.6823 0.093151 0.449891 -0.199615
2011-02-14 07:26:19 51°13.663 2°55.958 13.6832 0.093151 0.449922 -0.164791
2011-02-14 07:27:19 51°13.662 2°55.959 13.6732 0.093151 0.449952 -0.164791
2011-02-14 07:28:19 51°13.662 2°55.96 13.6872 0.093151 0.449976 -0.199615
2011-02-14 07:29:19 51°13.663 2°55.96 13.6606 0.093151 0.450019 -0.199615
2011-02-14 07:30:18 51°13.663 2°55.96 13.6714 0.093151 0.450068 -0.164791
2011-02-14 07:31:19 51°13.663 2°55.961 13.6732 0.093151 0.450129 -0.199615
2011-02-14 07:32:18 51°13.664 2°55.961 13.6796 0.093151 0.45019 -0.129967
2011-02-14 07:33:19 51°13.663 2°55.961 13.713 0.093151 0.450251 -0.164791
2011-02-14 07:34:18 51°13.663 2°55.961 13.7244 0.093151 0.450312 -0.164791
2011-02-14 07:35:21 51°13.663 2°55.961 13.7193 0.093151 0.450373 -0.164791
2011-02-14 07:36:22 51°13.662 2°55.961 13.7322 0.093047 0.449907 -0.199615
2011-02-14 07:37:21 51°13.666 2°55.938 13.718 0.093047 0.449968 -0.199615
2011-02-14 07:38:22 51°13.684 2°55.837 13.7823 0.093047 0.450035 -0.164791
2011-02-14 07:39:21 51°13.69 2°55.747 13.7751 0.093047 0.450109 -0.164791
2011-02-14 07:40:20 51°13.696 2°55.74 13.7804 0.093047 0.450182 -0.164791
2011-02-14 07:41:19 51°13.729 2°55.736 13.8586 0.093047 0.450255 -0.164791
2011-02-14 07:42:21 51°13.801 2°55.657 13.5221 0.093047 0.450298 -0.199615
2011-02-14 07:43:19 51°13.903 2°55.573 13.5909 0.093047 0.450377 -0.199615
2011-02-14 07:44:18 51°14.021 2°55.492 13.6498 0.092943 0.449887 -0.199615
2011-02-14 07:45:19 51°14.159 2°55.394 13.6742 0.092943 0.449942 -0.199615
2011-02-14 07:46:19 51°14.305 2°55.267 13.7024 0.092943 0.450003 -0.129967
2011-02-14 07:47:19 51°14.452 2°55.118 13.6541 0.092943 0.450064 -0.199615
2011-02-14 07:48:19 51°14.609 2°54.973 13.6328 0.092943 0.450125 -0.164791
2011-02-14 07:49:19 51°14.771 2°54.823 13.5174 0.092943 0.449954 -0.164791
2011-02-14 07:50:18 51°14.938 2°54.642 7.0093 2.455104 20.90605 0.218274
2011-02-14 07:51:18 51°15.116 2°54.441 6.7976 3.423828 33.362282 0.148626
2011-02-14 07:52:18 51°15.292 2°54.234 6.7042 3.398215 33.359535 0.18345
2011-02-14 07:53:19 51°15.465 2°54.011 6.6668 3.400642 33.534517 0.18345
2011-02-14 07:54:19 51°15.628 2°53.783 6.6551 3.400431 33.582035 0.18345
2011-02-14 07:55:19 51°15.792 2°53.558 6.6338 3.403173 33.653764 0.148626
2011-02-14 07:56:18 51°15.985 2°53.402 6.6029 3.40507 33.694654 0.113802
2011-02-14 07:57:19 51°16.189 2°53.247 6.567 3.406968 33.764945 0.078977
2011-02-14 07:58:19 51°16.389 2°53.097 6.5309 3.405598 33.790184 0.148626
2011-02-14 07:59:18 51°16.595 2°52.973 6.5137 3.402753 33.798371 0.148626
2011-02-14 08:00:19 51°16.804 2°52.836 6.497 3.406126 33.853293 0.218274
2011-02-14 08:01:19 51°17.011 2°52.703 6.5005 3.403385 33.84077 0.148626
2011-02-14 08:02:18 51°17.23 2°52.655 6.4987 3.402964 33.841181 0.148626
2011-02-14 08:03:19 51°17.464 2°52.641 6.4913 3.406864 33.895247 0.218274
2011-02-14 08:04:19 51°17.694 2°52.629 6.4895 3.410554 33.939399 0.218274
2011-02-14 08:05:18 51°17.92 2°52.61 6.4895 3.40971 33.931774 0.35757
2011-02-14 08:06:19 51°18.153 2°52.587 6.4838 3.410448 33.943319 0.253098
2011-02-14 08:07:19 51°18.383 2°52.567 6.4831 3.413295 33.980717 0.53169
2011-02-14 08:08:18 51°18.609 2°52.546 6.4746 3.413716 33.990472 0.462042
2011-02-14 08:09:19 51°18.842 2°52.525 6.4737 3.410659 33.96261 0.322746
2011-02-14 08:10:18 51°19.068 2°52.506 6.4706 3.41087 33.972581 0.392394
2011-02-14 08:11:18 51°19.297 2°52.489 6.4654 3.406759 33.93305 0.53169
2011-02-14 08:12:19 51°19.527 2°52.451 6.4578 3.409078 33.964644 0.601338
2011-02-14 08:13:19 51°19.746 2°52.356 6.4514 3.41066 33.986387 0.810283
2011-02-14 08:14:19 51°19.96 2°52.243 6.4315 3.409184 33.985353 0.740634
2011-02-14 08:15:19 51°20.173 2°52.128 6.3955 3.410449 34.015524 0.879931
2011-02-14 08:16:19 51°20.359 2°52.036 6.3636 3.406339 34.009151 0.879931
2011-02-14 08:17:19 51°20.529 2°51.957 6.35 3.405074 34.024119 0.740634
2011-02-14 08:18:19 51°20.673 2°51.875 6.3475 3.398644 33.965562 0.845107
2011-02-14 08:19:18 51°20.802 2°51.803 6.3491 3.409396 34.087469 0.670986
2011-02-14 08:20:19 51°20.93 2°51.721 6.3423 3.410029 34.093636 0.775459
2011-02-14 08:21:19 51°21.058 2°51.611 6.3395 3.409923 34.100168 0.810283
2011-02-14 08:22:19 51°21.233 2°51.441 6.3418 3.409923 34.10188 0.70581
2011-02-14 08:23:19 51°21.434 2°51.295 6.3497 3.410767 34.11039 0.670986
2011-02-14 08:24:19 51°21.655 2°51.247 6.3611 3.413718 34.136317 0.845107
2011-02-14 08:25:19 51°21.882 2°51.28 6.3599 3.419516 34.193848 0.70581
2011-02-14 08:26:18 51°22.106 2°51.319 6.3675 3.422151 34.219684 0.636162
2011-02-14 08:27:19 51°22.336 2°51.369 6.3809 3.423627 34.229205 0.462042
2011-02-14 08:28:19 51°22.564 2°51.414 6.393 3.425419 34.236225 0.70581
2011-02-14 08:29:18 51°22.789 2°51.458 6.4064 3.427843 34.248544 0.566514
2011-02-14 08:30:19 51°23.021 2°51.498 6.4187 3.429846 34.257037 0.601338
2011-02-14 08:31:19 51°23.249 2°51.533 6.4264 3.431954 34.269268 0.70581
2011-02-14 08:32:19 51°23.477 2°51.57 6.4274 3.432692 34.272304 0.636162
2011-02-14 08:33:19 51°23.706 2°51.602 6.4304 3.432587 34.273709 0.601338
2011-02-14 08:34:19 51°23.934 2°51.633 6.4291 3.432903 34.276358 0.53169
2011-02-14 08:35:19 51°24.162 2°51.677 6.4276 3.432692 34.273162 0.566514
2011-02-14 08:36:19 51°24.388 2°51.751 6.4209 3.432798 34.274331 0.53169
2011-02-14 08:37:18 51°24.612 2°51.821 6.4103 3.432165 34.273323 0.636162
2011-02-14 08:38:19 51°24.844 2°51.895 6.3954 3.431006 34.270761 0.670986
2011-02-14 08:39:19 51°25.071 2°51.968 6.3788 3.429108 34.267737 0.462042
2011-02-14 08:40:18 51°25.295 2°52.038 6.3568 3.425946 34.253242 0.496866
2011-02-14 08:41:19 51°25.526 2°52.114 6.3451 3.423627 34.240371 0.566514
2011-02-14 08:42:18 51°25.749 2°52.185 6.3347 3.421097 34.229448 0.566514
2011-02-14 08:43:18 51°25.976 2°52.257 6.3421 3.420359 34.228122 0.496866
2011-02-14 08:44:19 51°26.207 2°52.329 6.352 3.421097 34.227729 0.53169
2011-02-14 08:45:19 51°26.435 2°52.405 6.3676 3.423627 34.245527 0.53169
2011-02-14 08:46:18 51°26.659 2°52.467 6.3837 3.425841 34.256368 0.53169
2011-02-14 08:47:19 51°26.89 2°52.473 6.4037 3.429214 34.2775 0.462042
2011-02-14 08:48:19 51°27.118 2°52.482 6.403 3.432165 34.295656 0.427218
2011-02-14 08:49:19 51°27.345 2°52.525 6.3999 3.433009 34.300719 0.462042
2011-02-14 08:50:19 51°27.565 2°52.637 6.3836 3.431533 34.292933 0.427218
2011-02-14 08:51:19 51°27.787 2°52.745 6.3695 3.428898 34.280865 0.462042
2011-02-14 08:52:19 51°28.009 2°52.859 6.3516 3.425735 34.258635 0.35757
2011-02-14 08:53:19 51°28.231 2°52.966 6.3359 3.422678 34.241862 0.427218
2011-02-14 08:54:19 51°28.453 2°53.075 6.3302 3.421941 34.246558 0.35757
2011-02-14 08:55:18 51°28.673 2°53.182 6.3114 3.420887 34.23914 0.322746
2011-02-14 08:56:18 51°28.896 2°53.295 6.2999 3.418673 34.231728 0.322746
2011-02-14 08:57:18 51°29.119 2°53.408 6.294 3.417619 34.227746 0.322746
2011-02-14 08:58:18 51°29.342 2°53.522 6.2981 3.418779 34.240644 0.218274
2011-02-14 08:59:19 51°29.568 2°53.642 6.3057 3.419833 34.248927 0.218274
2011-02-14 09:00:18 51°29.781 2°53.786 6.3235 3.42173 34.258841 0.218274
2011-02-14 09:01:18 51°29.998 2°53.932 6.3301 3.423417 34.268127 0.218274
2011-02-14 09:02:18 51°30.215 2°54.083 6.3535 3.425841 34.277006 0.18345
2011-02-14 09:03:18 51°30.431 2°54.23 6.3661 3.42932 34.29673 0.18345
2011-02-14 09:04:18 51°30.645 2°54.377 6.379 3.431217 34.307482 0.18345
2011-02-14 09:05:18 51°30.86 2°54.517 6.3679 3.43206 34.310825 0.18345
2011-02-14 09:06:19 51°31.08 2°54.66 6.3516 3.429636 34.296801 0.148626
2011-02-14 09:07:18 51°31.295 2°54.794 6.335 3.426157 34.275358 0.18345
2011-02-14 09:08:19 51°31.516 2°54.937 6.3304 3.422995 34.257416 0.18345
2011-02-14 09:09:18 51°31.731 2°55.068 6.331 3.412453 34.127409 0.218274
2011-02-14 09:10:19 51°31.948 2°55.207 6.3078 3.41161 34.112905 0.18345
2011-02-14 09:11:18 51°32.105 2°55.305 6.3042 3.409291 34.10256 0.18345
2011-02-14 09:12:18 51°32.241 2°55.4 6.2751 3.409291 34.111982 0.287922
2011-02-14 09:13:18 51°32.374 2°55.464 6.2552 3.40634 34.110032 0.148626
2011-02-14 09:14:18 51°32.504 2°55.505 6.2383 3.403283 34.103478 0.18345
2011-02-14 09:15:19 51°32.586 2°55.536 6.2343 3.401807 34.103362 0.148626
2011-02-14 09:16:18 51°32.639 2°55.542 6.2331 3.402334 34.104937 0.18345
2011-02-14 09:17:19 51°32.679 2°55.547 6.226 3.402334 34.110947 0.148626
2011-02-14 09:18:18 51°32.71 2°55.553 6.2162 3.40128 34.1078 0.18345
2011-02-14 09:19:18 51°32.736 2°55.562 6.2196 3.401386 34.11241 0.148626
2011-02-14 09:20:18 51°32.764 2°55.553 6.2149 3.40128 34.110377 0.18345
2011-02-14 09:21:18 51°32.785 2°55.514 6.2261 3.400964 34.11201 0.18345
2011-02-14 09:22:18 51°32.805 2°55.39 6.2219 3.40244 34.122431 0.113802
2011-02-14 09:23:18 51°32.884 2°55.246 6.2278 3.401807 34.107656 0.18345
2011-02-14 09:24:18 51°33.012 2°55.119 6.2364 3.403178 34.122913 0.148626
2011-02-14 09:25:18 51°33.171 2°55.153 6.2399 3.404864 34.132239 0.148626
2011-02-14 09:26:19 51°33.251 2°55.385 6.2352 3.405813 34.136786 0.148626
2011-02-14 09:27:18 51°33.218 2°55.624 6.2253 3.404759 34.133644 0.148626
2011-02-14 09:28:18 51°33.142 2°55.819 6.2147 3.402229 34.115787 0.148626
2011-02-14 09:29:19 51°33.085 2°55.994 6.2099 3.399278 34.093226 0.148626
2011-02-14 09:30:19 51°33.043 2°56.129 6.1996 3.397591 34.083029 0.113802
2011-02-14 09:31:18 51°33.015 2°56.208 6.1944 3.395799 34.072514 0.148626
2011-02-14 09:32:18 51°32.997 2°56.261 6.1918 3.395483 34.073284 0.18345
2011-02-14 09:33:18 51°32.987 2°56.306 6.1887 3.394745 34.06678 0.148626
2011-02-14 09:34:18 51°32.985 2°56.346 6.1899 3.394218 34.062625 0.148626
2011-02-14 09:35:19 51°32.987 2°56.381 6.191 3.394007 34.062852 0.148626
2011-02-14 09:36:18 51°32.992 2°56.411 6.1888 3.393059 34.050564 0.148626
2011-02-14 09:37:19 51°33.001 2°56.442 6.1865 3.39348 34.056979 0.18345
2011-02-14 09:38:18 51°33.011 2°56.472 6.1902 3.392953 34.051965 0.148626
2011-02-14 09:39:19 51°33.023 2°56.502 6.1906 3.393059 34.050564 0.148626
2011-02-14 09:40:18 51°33.034 2°56.529 6.1892 3.394218 34.063484 0.148626
2011-02-14 09:41:18 51°33.047 2°56.557 6.1936 3.392953 34.052823 0.18345
2011-02-14 09:42:18 51°33.06 2°56.584 6.1891 3.39348 34.055262 0.18345
2011-02-14 09:43:18 51°33.073 2°56.612 6.1892 3.393164 34.053455 0.18345
2011-02-14 09:44:19 51°33.087 2°56.642 6.1891 3.392953 34.051965 0.18345
2011-02-14 09:45:18 51°33.101 2°56.672 6.1915 3.392637 34.046724 0.18345
2011-02-14 09:46:19 51°33.115 2°56.703 6.1979 3.393586 34.055578 0.18345
2011-02-14 09:47:18 51°33.128 2°56.733 6.193 3.393586 34.050427 0.18345
2011-02-14 09:48:19 51°33.141 2°56.765 6.1874 3.393164 34.048305 0.18345
2011-02-14 09:49:18 51°33.153 2°56.795 6.1834 3.392637 34.047582 0.18345
2011-02-14 09:50:19 51°33.165 2°56.826 6.1875 3.39211 34.04686 0.148626
2011-02-14 09:51:18 51°33.178 2°56.855 6.1876 3.392426 34.045233 0.148626
2011-02-14 09:52:19 51°33.191 2°56.884 6.1807 3.392005 34.042252 0.18345
2011-02-14 09:53:19 51°33.204 2°56.912 6.1785 3.391372 34.042071 0.18345
2011-02-14 09:54:18 51°33.217 2°56.939 6.1849 3.391267 34.042613 0.18345
2011-02-14 09:55:19 51°33.231 2°56.967 6.1802 3.391372 34.037779 0.18345
2011-02-14 09:56:18 51°33.243 2°56.993 6.1813 3.390845 34.036197 0.18345
2011-02-14 09:57:18 51°33.238 2°57.015 6.1723 3.390213 34.032582 0.148626
2011-02-14 09:58:18 51°33.227 2°57.007 6.1707 3.389686 34.030999 0.148626
2011-02-14 09:59:18 51°33.213 2°56.975 6.1764 3.389053 34.025666 0.18345
2011-02-14 10:00:18 51°33.193 2°56.934 6.179 3.389264 34.026299 0.18345
2011-02-14 10:01:18 51°33.17 2°56.891 6.1753 3.390318 34.03204 0.18345
2011-02-14 10:02:18 51°33.149 2°56.843 6.1762 3.390951 34.040806 0.18345
2011-02-14 10:03:18 51°33.128 2°56.794 6.1777 3.390951 34.041664 0.148626
2011-02-14 10:04:19 51°33.137 2°56.742 6.1777 3.391478 34.042387 0.18345
2011-02-14 10:05:18 51°33.161 2°56.716 6.1907 3.391478 34.042387 0.18345
2011-02-14 10:06:19 51°33.183 2°56.704 6.1841 3.392953 34.046814 0.18345
2011-02-14 10:07:18 51°33.207 2°56.687 6.1843 3.393059 34.053139 0.18345
2011-02-14 10:08:19 51°33.233 2°56.654 6.1871 3.393164 34.061184 0.18345
2011-02-14 10:09:18 51°33.283 2°56.634 6.1954 3.393691 34.061905 0.18345
2011-02-14 10:10:19 51°33.34 2°56.686 6.1954 3.395588 34.076177 0.18345
2011-02-14 10:11:18 51°33.358 2°56.777 6.1941 3.395694 34.077352 0.18345
2011-02-14 10:12:18 51°33.336 2°56.844 6.1893 3.395378 34.07211 0.18345
2011-02-14 10:13:19 51°33.281 2°56.877 6.1813 3.39348 34.060414 0.148626
2011-02-14 10:14:18 51°33.214 2°56.902 6.1832 3.392953 34.058835 0.18345
2011-02-14 10:15:18 51°33.141 2°56.925 6.1837 3.392532 34.054994 0.148626
2011-02-14 10:16:18 51°33.067 2°56.954 6.1869 3.392953 34.056258 0.148626
2011-02-14 10:17:18 51°32.995 2°56.981 6.1858 3.392321 34.050927 0.148626
2011-02-14 10:18:18 51°32.96 2°57.039 6.1901 3.393164 34.05689 0.148626
2011-02-14 10:19:18 51°32.946 2°57.098 6.1906 3.39348 34.062132 0.18345
2011-02-14 10:20:18 51°32.943 2°57.151 6.1909 3.393375 34.058381 0.148626
2011-02-14 10:21:18 51°32.944 2°57.194 6.1876 3.393164 34.055173 0.148626
2011-02-14 10:22:18 51°32.947 2°57.231 6.1922 3.39348 34.059555 0.18345
2011-02-14 10:23:18 51°32.946 2°57.29 6.1849 3.393375 34.056663 0.18345
2011-02-14 10:24:19 51°32.978 2°57.369 6.1805 3.392426 34.051243 0.18345
2011-02-14 10:25:18 51°33.037 2°57.39 6.1794 3.391478 34.045822 0.148626
2011-02-14 10:26:19 51°33.08 2°57.342 6.1785 3.390951 34.041664 0.18345
2011-02-14 10:27:18 51°33.079 2°57.207 6.1862 3.391267 34.041755 0.148626
2011-02-14 10:28:19 51°33.06 2°56.965 6.1982 3.393164 34.054314 0.148626
2011-02-14 10:29:18 51°33.041 2°56.714 6.2105 3.395272 34.069218 0.18345
2011-02-14 10:30:18 51°33.031 2°56.449 6.2213 3.398013 34.087726 0.148626
2011-02-14 10:31:18 51°33.042 2°56.186 6.2411 3.401386 34.111551 0.18345
2011-02-14 10:32:18 51°33.057 2°56.025 6.2448 3.404864 34.132239 0.113802
2011-02-14 10:33:18 51°33.07 2°55.944 6.2516 3.406445 34.148123 0.113802
2011-02-14 10:34:18 51°33.083 2°55.9 6.2502 3.406445 34.144685 0.148626
2011-02-14 10:35:19 51°33.1 2°55.873 6.2597 3.40771 34.155327 0.148626
2011-02-14 10:36:18 51°33.115 2°55.86 6.2624 3.40887 34.160497 0.18345
2011-02-14 10:37:19 51°33.13 2°55.857 6.2535 3.409081 34.165422 0.18345
2011-02-14 10:38:18 51°33.145 2°55.86 6.2527 3.408027 34.159707 0.18345
2011-02-14 10:39:19 51°33.162 2°55.869 6.2579 3.407921 34.158534 0.148626
2011-02-14 10:40:18 51°33.179 2°55.878 6.2861 3.408448 34.155805 0.18345
2011-02-14 10:41:19 51°33.199 2°55.858 6.2632 3.41024 34.161996 0.18345
2011-02-14 10:42:18 51°33.217 2°55.837 6.2661 3.40887 34.161357 0.148626
2011-02-14 10:43:18 51°33.234 2°55.826 6.268 3.409186 34.164017 0.18345
2011-02-14 10:44:18 51°33.249 2°55.822 6.2624 3.410135 34.166838 0.148626
2011-02-14 10:45:18 51°33.265 2°55.823 6.252 3.409608 34.168709 0.18345
2011-02-14 10:46:18 51°33.28 2°55.827 6.2513 3.408554 34.164714 0.18345
2011-02-14 10:47:18 51°33.297 2°55.836 6.2622 3.408027 34.161426 0.18345
2011-02-14 10:48:18 51°33.315 2°55.848 6.2499 3.408659 34.161589 0.18345
2011-02-14 10:49:19 51°33.334 2°55.862 6.2507 3.408132 34.1626 0.18345
2011-02-14 10:50:18 51°33.353 2°55.877 6.2506 3.408132 34.16346 0.148626
2011-02-14 10:51:18 51°33.372 2°55.896 6.2517 3.407816 34.15822 0.18345
2011-02-14 10:52:18 51°33.392 2°55.916 6.2698 3.408448 34.159243 0.148626
2011-02-14 10:53:19 51°33.413 2°55.937 6.2632 3.409924 34.166211 0.113802
2011-02-14 10:54:18 51°33.433 2°55.953 6.2631 3.408659 34.15987 0.113802
2011-02-14 10:55:18 51°33.465 2°55.938 6.2618 3.409713 34.160428 0.148626
2011-02-14 10:56:18 51°33.473 2°55.89 6.2545 3.409186 34.164876 0.18345
2011-02-14 10:57:18 51°33.448 2°55.839 6.2567 3.408448 34.162681 0.18345
2011-02-14 10:58:18 51°33.407 2°55.778 6.2593 3.40887 34.163935 0.18345
2011-02-14 10:59:18 51°33.36 2°55.72 6.2722 3.410346 34.176062 0.18345
2011-02-14 11:00:18 51°33.323 2°55.678 6.2757 3.412032 34.185372 0.18345
2011-02-14 11:01:18 51°33.299 2°55.658 6.2771 3.412875 34.192176 0.18345
2011-02-14 11:02:18 51°33.286 2°55.656 6.2766 3.413086 34.192802 0.18345
2011-02-14 11:03:18 51°33.283 2°55.665 6.2761 3.413086 34.194522 0.18345
2011-02-14 11:04:18 51°33.289 2°55.681 6.2754 3.413192 34.193975 0.18345
2011-02-14 11:05:18 51°33.305 2°55.701 6.2758 3.413086 34.194522 0.18345
2011-02-14 11:06:18 51°33.321 2°55.722 6.2767 3.413192 34.195695 0.218274
2011-02-14 11:07:18 51°33.337 2°55.742 6.2783 3.413192 34.193975 0.218274
2011-02-14 11:08:18 51°33.353 2°55.762 6.2796 3.413192 34.193115 0.218274
2011-02-14 11:09:18 51°33.369 2°55.782 6.2808 3.413508 34.194054 0.148626
2011-02-14 11:10:18 51°33.384 2°55.803 6.2795 3.413508 34.193194 0.218274
2011-02-14 11:11:18 51°33.397 2°55.825 6.2816 3.413613 34.195226 0.18345
2011-02-14 11:12:18 51°33.411 2°55.851 6.2853 3.413402 34.191161 0.148626
2011-02-14 11:13:19 51°33.41 2°55.91 6.284 3.412559 34.177483 0.218274
2011-02-14 11:14:18 51°33.393 2°55.989 6.279 3.413192 34.187097 0.18345
2011-02-14 11:15:19 51°33.375 2°56.064 6.2825 3.412559 34.180061 0.148626
2011-02-14 11:16:18 51°33.365 2°56.117 6.284 3.413613 34.189208 0.148626
2011-02-14 11:17:18 51°33.36 2°56.158 6.2858 3.413613 34.189208 0.148626
2011-02-14 11:18:18 51°33.36 2°56.192 6.2841 3.41414 34.191633 0.148626
2011-02-14 11:19:18 51°33.362 2°56.22 6.2851 3.413824 34.189834 0.113802
2011-02-14 11:20:18 51°33.368 2°56.245 6.2831 3.413719 34.189521 0.148626
2011-02-14 11:21:18 51°33.375 2°56.267 6.2874 3.413824 34.191554 0.148626
2011-02-14 11:22:18 51°33.384 2°56.288 6.2893 3.413929 34.190147 0.148626
2011-02-14 11:23:18 51°33.393 2°56.308 6.2924 3.414351 34.19054 0.148626
2011-02-14 11:24:18 51°33.405 2°56.327 6.2894 3.414456 34.190853 0.148626
2011-02-14 11:25:18 51°33.417 2°56.348 6.2852 3.414246 34.190227 0.148626
2011-02-14 11:26:18 51°33.429 2°56.366 6.2946 3.413402 34.186863 0.18345
2011-02-14 11:27:18 51°33.441 2°56.384 6.2947 3.414351 34.185384 0.18345
2011-02-14 11:28:18 51°33.453 2°56.401 6.2892 3.414562 34.187729 0.18345
2011-02-14 11:29:19 51°33.466 2°56.419 6.2921 3.41414 34.189055 0.18345
2011-02-14 11:30:18 51°33.478 2°56.436 6.2948 3.413929 34.182414 0.148626
2011-02-14 11:31:18 51°33.491 2°56.453 6.2922 3.414035 34.182727 0.18345
2011-02-14 11:32:18 51°33.504 2°56.47 6.3077 3.414035 34.182727 0.18345
2011-02-14 11:33:18 51°33.517 2°56.488 6.3059 3.415194 34.180159 0.148626
2011-02-14 11:34:18 51°33.53 2°56.504 6.3073 3.414351 34.176795 0.18345
2011-02-14 11:35:18 51°33.542 2°56.521 6.313 3.4153 34.183048 0.18345
2011-02-14 11:36:18 51°33.555 2°56.538 6.3102 3.415405 34.179069 0.148626
2011-02-14 11:37:18 51°33.568 2°56.555 6.3091 3.414772 34.172897 0.148626
2011-02-14 11:38:18 51°33.58 2°56.572 6.2954 3.414772 34.175473 0.148626
2011-02-14 11:39:18 51°33.593 2°56.589 6.3139 3.413613 34.171168 0.148626
2011-02-14 11:40:18 51°33.603 2°56.61 6.3015 3.413929 34.155804 0.148626
2011-02-14 11:41:18 51°33.593 2°56.633 6.2849 3.413191 34.169915 0.18345
2011-02-14 11:42:18 51°33.57 2°56.621 6.2958 3.41161 34.162637 0.148626
2011-02-14 11:43:18 51°33.554 2°56.565 6.2955 3.413086 34.17046 0.113802
2011-02-14 11:44:18 51°33.53 2°56.499 6.2927 3.413718 34.174916 0.113802
2011-02-14 11:45:18 51°33.492 2°56.45 6.3031 3.414035 34.181868 0.113802
2011-02-14 11:46:18 51°33.446 2°56.425 6.3237 3.416038 34.191251 0.113802
2011-02-14 11:47:19 51°33.396 2°56.403 6.3114 3.418567 34.208205 0.113802
2011-02-14 11:48:18 51°33.361 2°56.382 6.3122 3.418567 34.211641 0.113802
2011-02-14 11:49:18 51°33.339 2°56.362 6.3105 3.418989 34.218906 0.148626
2011-02-14 11:50:18 51°33.329 2°56.347 6.3161 3.418989 34.218906 0.148626
2011-02-14 11:51:18 51°33.325 2°56.336 6.3154 3.419411 34.221875 0.18345
2011-02-14 11:52:18 51°33.327 2°56.328 6.322 3.419516 34.222187 0.148626
2011-02-14 11:53:18 51°33.333 2°56.324 6.3295 3.420254 34.224372 0.148626
2011-02-14 11:54:18 51°33.343 2°56.319 6.3237 3.420149 34.228358 0.18345
2011-02-14 11:55:18 51°33.342 2°56.296 6.3318 3.419411 34.226173 0.18345
2011-02-14 11:56:18 51°33.312 2°56.302 6.3363 3.420043 34.227186 0.18345
2011-02-14 11:57:18 51°33.291 2°56.372 6.3478 3.419938 34.223436 0.18345
2011-02-14 11:58:18 51°33.287 2°56.454 6.3456 3.421413 34.229524 0.148626
2011-02-14 11:59:18 51°33.288 2°56.532 6.3467 3.420465 34.216405 0.113802
2011-02-14 12:00:18 51°33.291 2°56.603 6.3433 3.419938 34.212267 0.148626
2011-02-14 12:01:18 51°33.297 2°56.661 6.3458 3.420148 34.216327 0.148626
2011-02-14 12:02:18 51°33.303 2°56.708 6.3474 3.420254 34.215781 0.113802
2011-02-14 12:03:18 51°33.309 2°56.744 6.3441 3.420781 34.21906 0.148626
2011-02-14 12:04:18 51°33.316 2°56.773 6.3456 3.419621 34.207894 0.148626
2011-02-14 12:05:18 51°33.324 2°56.796 6.3471 3.420148 34.210315 0.148626
2011-02-14 12:06:18 51°33.332 2°56.816 6.3447 3.418989 34.200009 0.18345
2011-02-14 12:07:18 51°33.34 2°56.833 6.3436 3.418567 34.197899 0.18345
2011-02-14 12:08:18 51°33.35 2°56.849 6.3361 3.419305 34.206957 0.18345
2011-02-14 12:09:19 51°33.361 2°56.865 6.3336 3.419305 34.21211 0.18345
2011-02-14 12:10:18 51°33.371 2°56.878 6.3278 3.418567 34.208205 0.148626
2011-02-14 12:11:18 51°33.381 2°56.891 6.3372 3.418567 34.209064 0.148626
2011-02-14 12:12:18 51°33.392 2°56.903 6.3395 3.418884 34.210001 0.18345
2011-02-14 12:13:18 51°33.404 2°56.914 6.3405 3.419094 34.206332 0.148626
2011-02-14 12:14:19 51°33.417 2°56.925 6.3431 3.419305 34.207816 0.148626
2011-02-14 12:15:18 51°33.43 2°56.936 6.3448 3.419094 34.202897 0.148626
2011-02-14 12:16:18 51°33.444 2°56.946 6.339 3.419411 34.208128 0.148626
2011-02-14 12:17:18 51°33.458 2°56.955 6.3385 3.418778 34.201101 0.18345
2011-02-14 12:18:19 51°33.463 2°56.982 6.3387 3.418989 34.206878 0.18345
2011-02-14 12:19:18 51°33.451 2°57.03 6.3359 3.418989 34.206878 0.113802
2011-02-14 12:20:18 51°33.408 2°57.039 6.3302 3.418356 34.201567 0.148626
2011-02-14 12:21:18 51°33.367 2°56.943 6.3256 3.416986 34.195784 0.148626
2011-02-14 12:22:18 51°33.317 2°56.802 6.3344 3.416565 34.196251 0.148626
2011-02-14 12:23:18 51°33.259 2°56.647 6.3434 3.418462 34.206174 0.113802
2011-02-14 12:24:18 51°33.191 2°56.503 6.3669 3.421097 34.223433 0.113802
2011-02-14 12:25:18 51°33.146 2°56.376 6.3666 3.424365 34.236541 0.113802
2011-02-14 12:26:18 51°33.119 2°56.272 6.3722 3.424997 34.247861 0.148626
2011-02-14 12:27:18 51°33.108 2°56.214 6.3789 3.425735 34.250901 0.148626
2011-02-14 12:28:18 51°33.117 2°56.178 6.383 3.427106 34.259246 0.148626
2011-02-14 12:29:18 51°33.131 2°56.16 6.3908 3.427949 34.263455 0.148626
2011-02-14 12:30:18 51°33.145 2°56.157 6.3893 3.428476 34.263293 0.113802
2011-02-14 12:31:18 51°33.159 2°56.157 6.3855 3.428054 34.259471 0.148626
2011-02-14 12:32:18 51°33.174 2°56.159 6.3876 3.428054 34.265484 0.148626
2011-02-14 12:33:18 51°33.189 2°56.163 6.3908 3.428054 34.259471 0.148626
2011-02-14 12:34:18 51°33.204 2°56.168 6.3951 3.42837 34.262123 0.148626
2011-02-14 12:35:18 51°33.218 2°56.173 6.4027 3.429214 34.26633 0.148626
2011-02-14 12:36:18 51°33.232 2°56.18 6.409 3.430057 34.266243 0.148626
2011-02-14 12:37:18 51°33.246 2°56.188 6.4156 3.430689 34.267252 0.148626
2011-02-14 12:38:18 51°33.259 2°56.198 6.4159 3.431111 34.266779 0.148626
2011-02-14 12:39:18 51°33.272 2°56.207 6.4067 3.430373 34.264601 0.148626
2011-02-14 12:40:18 51°33.284 2°56.217 6.4028 3.429635 34.261564 0.148626
2011-02-14 12:41:18 51°33.296 2°56.225 6.405 3.429108 34.259149 0.148626
2011-02-14 12:42:18 51°33.314 2°56.217 6.4071 3.428581 34.251583 0.113802
2011-02-14 12:43:18 51°33.306 2°56.142 6.3934 3.427949 34.244565 0.148626
2011-02-14 12:44:18 51°33.234 2°56.113 6.3996 3.426895 34.244023 0.148626
2011-02-14 12:45:18 51°33.153 2°56.099 6.4001 3.427843 34.245111 0.113802
2011-02-14 12:46:18 51°33.105 2°56.054 6.4151 3.429425 34.260083 0.113802
2011-02-14 12:47:18 51°33.101 2°56.006 6.4279 3.431216 34.266232 0.113802
2011-02-14 12:48:18 51°33.109 2°56.012 6.4254 3.432692 34.275737 0.148626
2011-02-14 12:49:19 51°33.117 2°56.023 6.418 3.43206 34.272154 0.113802
2011-02-14 12:50:18 51°33.126 2°56.033 6.4174 3.431638 34.272627 0.148626
2011-02-14 12:51:18 51°33.136 2°56.043 6.4225 3.431638 34.271768 0.18345
2011-02-14 12:52:18 51°33.147 2°56.054 6.4276 3.433219 34.284159 0.148626
2011-02-14 12:53:18 51°33.159 2°56.064 6.4318 3.43343 34.282205 0.148626
2011-02-14 12:54:18 51°33.17 2°56.074 6.4352 3.432692 34.270587 0.113802
2011-02-14 12:55:18 51°33.183 2°56.085 6.431 3.434063 34.283211 0.148626
2011-02-14 12:56:18 51°33.194 2°56.094 6.4331 3.433641 34.279393 0.113802
2011-02-14 12:57:18 51°33.207 2°56.102 6.4337 3.434168 34.282663 0.148626
2011-02-14 12:58:20 51°33.219 2°56.109 6.4372 3.43459 34.283048 0.148626
2011-02-14 12:59:19 51°33.232 2°56.116 6.4387 3.434484 34.281021 0.18345
2011-02-14 13:00:18 51°33.244 2°56.122 6.4399 3.434379 34.279852 0.113802
2011-02-14 13:01:18 51°33.256 2°56.129 6.4378 3.43459 34.283048 0.148626
2011-02-14 13:02:18 51°33.268 2°56.135 6.4413 3.43459 34.283906 0.148626
2011-02-14 13:03:18 51°33.28 2°56.14 6.4354 3.434379 34.283285 0.148626
2011-02-14 13:04:18 51°33.293 2°56.145 6.4326 3.434168 34.282663 0.148626
2011-02-14 13:05:18 51°33.306 2°56.149 6.4339 3.433852 34.280873 0.18345
2011-02-14 13:06:18 51°33.319 2°56.155 6.4373 3.433957 34.280325 0.148626
2011-02-14 13:07:18 51°33.332 2°56.16 6.4281 3.433957 34.279467 0.148626
2011-02-14 13:08:18 51°33.344 2°56.166 6.4254 3.433325 34.280177 0.148626
2011-02-14 13:09:18 51°33.357 2°56.174 6.4203 3.432692 34.276595 0.148626
2011-02-14 13:10:18 51°33.369 2°56.182 6.4172 3.432481 34.278549 0.148626
2011-02-14 13:11:18 51°33.382 2°56.191 6.4167 3.431954 34.275277 0.148626
2011-02-14 13:12:18 51°33.394 2°56.199 6.4148 3.431638 34.274344 0.148626
2011-02-14 13:13:18 51°33.406 2°56.208 6.4101 3.431111 34.273648 0.148626
2011-02-14 13:14:18 51°33.418 2°56.217 6.4098 3.431322 34.275128 0.113802
2011-02-14 13:15:18 51°33.431 2°56.225 6.4081 3.431111 34.272789 0.148626
2011-02-14 13:16:18 51°33.443 2°56.231 6.4079 3.43069 34.273262 0.148626
2011-02-14 13:17:18 51°33.456 2°56.237 6.4114 3.430373 34.26546 0.148626
2011-02-14 13:18:18 51°33.468 2°56.244 6.4059 3.430689 34.26811 0.148626
2011-02-14 13:19:18 51°33.48 2°56.251 6.4024 3.430373 34.266318 0.148626
2011-02-14 13:20:18 51°33.491 2°56.258 6.4099 3.430057 34.265385 0.148626
2011-02-14 13:21:18 51°33.503 2°56.265 6.4112 3.430373 34.26546 0.148626
2011-02-14 13:22:18 51°33.517 2°56.268 6.409 3.430479 34.263196 0.18345
2011-02-14 13:23:18 51°33.531 2°56.22 6.4134 3.429952 34.26164 0.148626
2011-02-14 13:24:18 51°33.495 2°56.168 6.4169 3.430373 34.263743 0.148626
2011-02-14 13:25:18 51°33.419 2°56.162 6.4123 3.430373 34.259451 0.113802
2011-02-14 13:26:18 51°33.33 2°56.178 6.4094 3.430584 34.266082 0.113802
2011-02-14 13:26:38 51°33.299 2°56.176 6.407 3.430479 34.26663 0.148626
2011-02-14 13:27:38 51°33.207 2°56.147 6.4067 3.4309 34.272167 0.148626
2011-02-14 13:28:38 51°33.117 2°56.123 6.4151 3.431217 34.276535 0.113802
2011-02-14 13:29:38 51°33.056 2°56.089 6.4248 3.432587 34.283153 0.148626
2011-02-14 13:30:38 51°33.035 2°56.049 6.4331 3.434484 34.293039 0.148626
2011-02-14 13:31:39 51°33.041 2°56.051 6.4291 3.434695 34.29366 0.148626
2011-02-14 13:32:40 51°33.048 2°56.059 6.4283 3.435011 34.298026 0.148626
2011-02-14 13:33:38 51°33.054 2°56.067 6.4247 3.434906 34.298575 0.18345
2011-02-14 13:34:38 51°33.061 2°56.075 6.4305 3.434906 34.298575 0.148626
2011-02-14 13:35:38 51°33.069 2°56.082 6.4291 3.434801 34.298264 0.148626
2011-02-14 13:36:38 51°33.076 2°56.088 6.4301 3.434906 34.298575 0.148626
2011-02-14 13:37:38 51°33.084 2°56.095 6.4327 3.435117 34.297478 0.18345
2011-02-14 13:38:38 51°33.091 2°56.102 6.4334 3.435538 34.299579 0.148626
2011-02-14 13:39:38 51°33.098 2°56.108 6.4341 3.435117 34.297478 0.148626
2011-02-14 13:40:38 51°33.105 2°56.115 6.4395 3.435433 34.297551 0.148626
2011-02-14 13:41:38 51°33.112 2°56.122 6.4411 3.435644 34.297313 0.148626
2011-02-14 13:42:38 51°33.119 2°56.128 6.439 3.43596 34.296527 0.113802
2011-02-14 13:43:38 51°33.127 2°56.134 6.441 3.43596 34.297386 0.113802
2011-02-14 13:44:38 51°33.134 2°56.14 6.4377 3.436276 34.298317 0.148626
2011-02-14 13:45:38 51°33.142 2°56.148 6.4418 3.436382 34.302062 0.148626
2011-02-14 13:46:38 51°33.149 2°56.152 6.4411 3.436276 34.2966 0.113802
2011-02-14 13:47:38 51°33.158 2°56.155 6.4394 3.436382 34.298628 0.148626
2011-02-14 13:48:38 51°33.195 2°56.109 6.4431 3.436276 34.299176 0.148626
2011-02-14 13:49:38 51°33.236 2°56.022 6.4489 3.436171 34.29629 0.148626
2011-02-14 13:50:38 51°33.288 2°55.989 6.4356 3.436592 34.29839 0.148626
2011-02-14 13:51:38 51°33.337 2°56.024 6.4432 3.435433 34.292399 0.148626
2011-02-14 13:52:38 51°33.369 2°56.067 6.4388 3.435644 34.288729 0.148626
2011-02-14 13:53:38 51°33.386 2°56.109 6.4267 3.435749 34.291615 0.148626
2011-02-14 13:54:38 51°33.396 2°56.145 6.4258 3.434379 34.286718 0.113802
2011-02-14 13:55:38 51°33.403 2°56.176 6.4224 3.433536 34.280799 0.148626
2011-02-14 13:56:38 51°33.406 2°56.201 6.4173 3.433219 34.280725 0.148626
2011-02-14 13:57:38 51°33.407 2°56.22 6.4139 3.432587 34.276284 0.148626
2011-02-14 13:58:38 51°33.407 2°56.235 6.4123 3.432271 34.278785 0.18345
2011-02-14 13:59:38 51°33.408 2°56.247 6.4101 3.431954 34.276994 0.148626
2011-02-14 14:00:38 51°33.409 2°56.257 6.4159 3.431744 34.277231 0.148626
2011-02-14 14:01:38 51°33.41 2°56.266 6.421 3.43206 34.275588 0.148626
2011-02-14 14:02:38 51°33.411 2°56.274 6.4325 3.432692 34.277453 0.18345
2011-02-14 14:03:39 51°33.411 2°56.281 6.4337 3.433536 34.279082 0.148626
2011-02-14 14:04:38 51°33.41 2°56.29 6.4282 3.433746 34.277129 0.148626
2011-02-14 14:05:38 51°33.375 2°56.289 6.4338 3.433957 34.281183 0.18345
2011-02-14 14:06:38 51°33.353 2°56.211 6.4214 3.434273 34.282116 0.148626
2011-02-14 14:07:38 51°33.364 2°56.041 6.424 3.433325 34.286187 0.18345
2011-02-14 14:08:38 51°33.32 2°55.781 6.4187 3.432798 34.281198 0.148626
2011-02-14 14:09:38 51°33.267 2°55.453 6.4282 3.43343 34.283922 0.18345
2011-02-14 14:10:38 51°33.163 2°55.146 6.439 3.434063 34.28922 0.18345
2011-02-14 14:11:38 51°33.026 2°54.875 6.44 3.435433 34.295833 0.18345
2011-02-14 14:12:38 51°32.826 2°54.752 6.4473 3.435538 34.29271 0.18345
2011-02-14 14:13:38 51°32.618 2°54.658 6.4416 3.437963 34.31015 0.148626
2011-02-14 14:14:38 51°32.401 2°54.63 6.4396 3.437541 34.310626 0.148626
2011-02-14 14:15:38 51°32.186 2°54.595 6.4403 3.437647 34.309219 0.113802
2011-02-14 14:16:38 51°31.971 2°54.56 6.4354 3.43733 34.30743 0.148626
2011-02-14 14:17:38 51°31.757 2°54.517 6.4292 3.435855 34.295358 0.148626
2011-02-14 14:18:38 51°31.541 2°54.478 6.4205 3.434379 34.289294 0.148626
2011-02-14 14:19:38 51°31.328 2°54.438 6.4071 3.433008 34.277528 0.148626
2011-02-14 14:20:38 51°31.113 2°54.396 6.396 3.431006 34.266468 0.113802
2011-02-14 14:21:38 51°30.9 2°54.351 6.398 3.42953 34.258678 0.113802
2011-02-14 14:22:38 51°30.684 2°54.303 6.3858 3.42837 34.245811 0.113802
2011-02-14 14:23:38 51°30.467 2°54.259 6.3968 3.426789 34.24457 0.148626
2011-02-14 14:24:38 51°30.249 2°54.219 6.4374 3.428265 34.239494 0.148626
2011-02-14 14:25:38 51°30.033 2°54.172 6.4674 3.434484 34.269012 0.18345
2011-02-14 14:26:38 51°29.815 2°54.126 6.4631 3.436592 34.276088 0.148626
2011-02-14 14:27:38 51°29.597 2°54.082 6.474 3.435854 34.268769 0.18345
2011-02-14 14:28:38 51°29.379 2°54.037 6.4779 3.438384 34.28737 0.18345
2011-02-14 14:29:38 51°29.161 2°53.992 6.4876 3.439227 34.283855 0.18345
2011-02-14 14:30:38 51°28.943 2°53.948 6.4858 3.439755 34.284552 0.18345
2011-02-14 14:31:38 51°28.725 2°53.902 6.4785 3.440492 34.291009 0.18345
2011-02-14 14:32:38 51°28.508 2°53.856 6.4734 3.43849 34.27654 0.148626
2011-02-14 14:33:38 51°28.289 2°53.814 6.4754 3.437646 34.274054 0.18345
2011-02-14 14:34:38 51°28.07 2°53.781 6.4791 3.43733 34.267981 0.148626
2011-02-14 14:35:38 51°27.851 2°53.759 6.4582 3.43849 34.278254 0.18345
2011-02-14 14:36:38 51°27.63 2°53.742 6.4462 3.435116 34.258023 0.18345
2011-02-14 14:37:38 51°27.408 2°53.724 6.4405 3.432586 34.245411 0.18345
2011-02-14 14:38:38 51°27.187 2°53.699 6.4286 3.431638 34.240893 0.218274
2011-02-14 14:39:38 51°26.965 2°53.668 6.4835 3.430689 34.232948 0.18345
2011-02-14 14:40:38 51°26.745 2°53.642 6.4959 3.437119 34.260508 0.18345
2011-02-14 14:41:38 51°26.525 2°53.608 6.5032 3.438595 34.261439 0.18345
2011-02-14 14:42:38 51°26.305 2°53.575 6.5047 3.438173 34.257627 0.18345
2011-02-14 14:43:38 51°26.083 2°53.544 6.502 3.438384 34.257394 0.253098
2011-02-14 14:44:38 51°25.862 2°53.514 6.5081 3.437962 34.253582 0.218274
2011-02-14 14:45:38 51°25.641 2°53.483 6.5103 3.438278 34.251094 0.218274
2011-02-14 14:46:38 51°25.42 2°53.453 6.5071 3.438384 34.255683 0.218274
2011-02-14 14:47:38 51°25.199 2°53.419 6.5058 3.438173 34.252494 0.218274
2011-02-14 14:48:38 51°24.978 2°53.389 6.5014 3.437541 34.249771 0.218274
2011-02-14 14:49:38 51°24.756 2°53.354 6.4905 3.436803 34.246736 0.218274
2011-02-14 14:50:38 51°24.535 2°53.324 6.4812 3.4348 34.230552 0.218274
2011-02-14 14:51:38 51°24.314 2°53.29 6.4728 3.433746 34.229146 0.218274
2011-02-14 14:52:38 51°24.092 2°53.256 6.4664 3.432375 34.220814 0.218274
2011-02-14 14:53:38 51°23.869 2°53.223 6.4656 3.431216 34.218239 0.18345
2011-02-14 14:54:38 51°23.646 2°53.19 6.4631 3.430478 34.21092 0.18345
2011-02-14 14:55:38 51°23.423 2°53.156 6.4486 3.430162 34.213407 0.18345
2011-02-14 14:56:38 51°23.2 2°53.122 6.4416 3.428791 34.206781 0.218274
2011-02-14 14:57:38 51°22.977 2°53.087 6.4352 3.428159 34.205763 0.18345
2011-02-14 14:58:38 51°22.756 2°53.055 6.4553 3.426367 34.191036 0.18345
2011-02-14 14:59:38 51°22.535 2°53.019 6.4832 3.427632 34.182812 0.218274
2011-02-14 15:00:38 51°22.314 2°52.979 6.4861 3.426577 34.148929 0.18345
2011-02-14 15:01:38 51°22.095 2°52.903 6.4836 3.426156 34.139995 0.218274
2011-02-14 15:02:38 51°21.877 2°52.817 6.4805 3.424153 34.12721 0.253098
2011-02-14 15:03:38 51°21.659 2°52.731 6.4856 0.440371 3.338095 0.253098
2011-02-14 15:04:38 51°21.438 2°52.695 6.5256 0.088473 0.606852 0.253098
2011-02-14 15:05:38 51°21.217 2°52.663 6.5495 0.059754 0.405231 0.287922
2011-02-14 15:06:38 51°20.996 2°52.629 6.5652 0.055072 0.367581 0.287922
2011-02-14 15:07:38 51°20.775 2°52.599 6.5643 0.05372 0.359691 0.287922
2011-02-14 15:08:38 51°20.553 2°52.565 6.5978 0.052576 0.354197 0.287922
2011-02-14 15:09:38 51°20.331 2°52.513 6.6132 0.051431 0.350497 0.322746
2011-02-14 15:10:38 51°20.107 2°52.465 6.6316 0.050495 0.348076 0.322746
2011-02-14 15:11:38 51°19.884 2°52.416 6.6331 0.049871 0.34715 0.35757
2011-02-14 15:12:38 51°19.66 2°52.377 6.6337 0.049351 0.345887 0.35757
2011-02-14 15:13:38 51°19.437 2°52.347 6.626 0.048935 0.344612 0.35757
2011-02-14 15:14:38 51°19.212 2°52.317 6.6332 0.048623 0.34384 0.322746
2011-02-14 15:15:38 51°18.989 2°52.296 6.6336 0.048415 0.343579 0.322746
2011-02-14 15:16:38 51°18.765 2°52.278 6.6367 0.048207 0.343091 0.35757
2011-02-14 15:17:38 51°18.542 2°52.267 6.6354 0.047999 0.342335 0.322746
2011-02-14 15:18:38 51°18.318 2°52.265 6.6275 0.047895 0.341995 0.322746
2011-02-14 15:19:38 51°18.094 2°52.26 6.6154 0.047791 0.341702 0.287922
2011-02-14 15:20:38 51°17.87 2°52.254 6.6108 0.047791 0.342007 0.322746
2011-02-14 15:21:38 51°17.646 2°52.264 6.5977 0.047687 0.341556 0.322746
2011-02-14 15:22:38 51°17.436 2°52.367 6.5972 0.047583 0.341042 0.35757
2011-02-14 15:23:38 51°17.229 2°52.488 6.603 0.047583 0.341222 0.392394
2011-02-14 15:24:38 51°17.023 2°52.606 6.6058 0.047479 0.340613 0.35757
2011-02-14 15:25:38 51°16.818 2°52.731 6.6099 0.047479 0.340613 0.35757
2011-02-14 15:26:38 51°16.613 2°52.863 6.6115 0.047583 0.341175 0.392394
2011-02-14 15:27:38 51°16.405 2°52.983 6.6158 0.047583 0.340971 0.392394
2011-02-14 15:28:38 51°16.198 2°53.102 6.6562 0.047583 0.341034 0.392394
2011-02-14 15:29:38 51°15.997 2°53.24 6.686 0.047479 0.340277 0.322746
2011-02-14 15:30:38 51°15.808 2°53.41 6.7112 0.047479 0.340433 0.322746
2011-02-14 15:31:38 51°15.63 2°53.602 6.7448 0.047479 0.340535 0.322746
2011-02-14 15:32:38 51°15.456 2°53.803 6.6943 0.047479 0.340347 0.35757
2011-02-14 15:33:38 51°15.288 2°54.016 6.7038 0.047479 0.340347 0.392394
2011-02-14 15:34:38 51°15.12 2°54.231 6.7171 0.047479 0.340589 0.427218
2011-02-14 15:35:38 51°14.955 2°54.448 6.7085 0.047375 0.339949 0.427218
2011-02-14 15:36:38 51°14.789 2°54.668 6.7203 0.047375 0.340066 0.462042
2011-02-14 15:37:38 51°14.626 2°54.877 6.7449 0.047375 0.340183 0.462042
2011-02-14 15:38:38 51°14.462 2°55.077 6.783 0.047375 0.340363 0.462042
2011-02-14 15:39:38 51°14.304 2°55.256 6.838 0.047375 0.340316 0.462042
2011-02-14 15:40:38 51°14.176 2°55.377 6.8064 0.047375 0.340167 0.35757
2011-02-14 15:41:40 51°14.055 2°55.468 6.8264 0.047375 0.340019 0.35757
2011-02-14 15:42:39 51°13.944 2°55.548 6.9728 0.047375 0.339972 0.392394
2011-02-14 15:43:38 51°13.84 2°55.623 7.3937 0.047375 0.340066 0.18345
2011-02-14 15:44:38 51°13.754 2°55.726 7.6106 0.047271 0.3393 0.113802
2011-02-14 15:45:38 51°13.7 2°55.83 8.2526 0.047271 0.339175 0.148626
2011-02-14 15:46:38 51°13.67 2°55.922 8.5647 0.047375 0.339816 0.148626
2011-02-14 15:47:38 51°13.662 2°55.959 8.6396 0.047375 0.339777 0.148626